createdAt,value
2019-05-16T00:00:13.726Z,4.15
2019-05-16T00:01:23.123Z,4.15
2019-05-16T00:02:32.626Z,4.16
2019-05-16T00:03:41.869Z,4.15
2019-05-16T00:04:51.158Z,4.16
2019-05-16T00:06:00.522Z,4.15
2019-05-16T00:07:10.036Z,4.15
2019-05-16T00:08:19.292Z,4.15
2019-05-16T00:09:28.754Z,4.15
2019-05-16T00:10:38.496Z,4.16
2019-05-16T00:11:48.968Z,4.15
2019-05-16T00:12:59.937Z,4.15
2019-05-16T00:14:08.557Z,4.16
2019-05-16T00:15:15.434Z,4.16
2019-05-16T00:16:25.999Z,4.15
2019-05-16T00:17:35.392Z,4.16
2019-05-16T00:18:44.795Z,4.16
2019-05-16T00:19:54.091Z,4.15
2019-05-16T00:21:03.456Z,4.16
2019-05-16T00:22:12.783Z,4.16
2019-05-16T00:23:22.260Z,4.15
2019-05-16T00:24:31.496Z,4.15
2019-05-16T00:25:41.013Z,4.15
2019-05-16T00:26:50.348Z,4.15
2019-05-16T00:27:59.615Z,4.15
2019-05-16T00:29:08.961Z,4.15
2019-05-16T00:30:18.511Z,4.15
2019-05-16T00:31:28.854Z,4.15
2019-05-16T00:32:39.349Z,4.15
2019-05-16T00:33:48.946Z,4.15
2019-05-16T00:34:58.480Z,4.15
2019-05-16T00:36:09.360Z,4.15
2019-05-16T00:37:14.496Z,4.15
2019-05-16T00:39:33.157Z,4.16
2019-05-16T00:40:42.510Z,4.15
2019-05-16T00:41:51.898Z,4.15
2019-05-16T00:43:01.260Z,4.15
2019-05-16T00:44:10.626Z,4.16
2019-05-16T00:45:20.141Z,4.15
2019-05-16T00:46:29.301Z,4.16
2019-05-16T00:47:39.332Z,4.15
2019-05-16T00:48:48.963Z,4.16
2019-05-16T00:49:58.422Z,4.15
2019-05-16T00:51:08.044Z,4.15
2019-05-16T00:52:18.593Z,4.15
2019-05-16T00:53:25.444Z,4.15
2019-05-16T00:54:35.778Z,4.15
2019-05-16T00:55:44.225Z,4.15
2019-05-16T00:56:54.186Z,4.15
2019-05-16T00:58:02.887Z,4.15
2019-05-16T00:59:12.242Z,4.15
2019-05-16T01:01:30.961Z,4.15
2019-05-16T01:02:40.276Z,4.15
2019-05-16T01:03:49.787Z,4.15
2019-05-16T01:04:59.170Z,4.15
2019-05-16T01:06:23.293Z,4.15
2019-05-16T01:07:18.894Z,4.15
2019-05-16T01:08:28.476Z,4.15
2019-05-16T01:09:38.791Z,4.15
2019-05-16T01:10:51.774Z,4.15
2019-05-16T01:11:58.088Z,4.15
2019-05-16T01:13:08.136Z,4.15
2019-05-16T01:14:15.017Z,4.15
2019-05-16T01:15:24.352Z,4.15
2019-05-16T01:16:33.755Z,4.15
2019-05-16T01:17:43.072Z,4.15
2019-05-16T01:18:52.423Z,4.15
2019-05-16T01:20:01.829Z,4.15
2019-05-16T01:21:11.282Z,4.15
2019-05-16T01:22:20.485Z,4.15
2019-05-16T01:23:30.118Z,4.15
2019-05-16T01:24:41.683Z,4.15
2019-05-16T01:25:48.738Z,4.15
2019-05-16T01:26:57.936Z,4.15
2019-05-16T01:28:09.020Z,4.15
2019-05-16T01:29:19.031Z,4.15
2019-05-16T01:30:25.926Z,4.15
2019-05-16T01:31:35.312Z,4.15
2019-05-16T01:32:44.759Z,4.15
2019-05-16T01:33:54.011Z,4.15
2019-05-16T01:35:03.366Z,4.15
2019-05-16T01:36:12.693Z,4.15
2019-05-16T01:37:22.074Z,4.15
2019-05-16T01:38:31.458Z,4.15
2019-05-16T01:39:40.770Z,4.15
2019-05-16T01:40:50.069Z,4.15
2019-05-16T01:41:59.636Z,4.15
2019-05-16T01:43:08.819Z,4.15
2019-05-16T01:44:18.558Z,4.15
2019-05-16T01:45:27.888Z,4.15
2019-05-16T01:46:39.298Z,4.15
2019-05-16T01:47:48.453Z,4.15
2019-05-16T01:48:57.928Z,4.15
2019-05-16T01:50:04.851Z,4.15
2019-05-16T01:51:14.321Z,4.15
2019-05-16T01:52:23.570Z,4.15
2019-05-16T01:53:32.912Z,4.15
2019-05-16T01:54:42.340Z,4.15
2019-05-16T01:55:51.774Z,4.15
2019-05-16T01:57:00.974Z,4.15
2019-05-16T01:58:10.340Z,4.15
2019-05-16T01:59:19.660Z,4.15
2019-05-16T02:00:58.004Z,4.15
2019-05-16T02:01:38.350Z,4.15
2019-05-16T02:02:49.001Z,4.15
2019-05-16T02:03:58.910Z,4.15
2019-05-16T02:05:08.684Z,4.15
2019-05-16T02:06:18.655Z,4.15
2019-05-16T02:07:25.117Z,4.15
2019-05-16T02:08:34.455Z,4.15
2019-05-16T02:09:43.795Z,4.15
2019-05-16T02:10:53.251Z,4.15
2019-05-16T02:12:02.498Z,4.15
2019-05-16T02:13:12.032Z,4.15
2019-05-16T02:14:21.379Z,4.15
2019-05-16T02:15:30.729Z,4.15
2019-05-16T02:16:40.064Z,4.15
2019-05-16T02:17:49.421Z,4.15
2019-05-16T02:18:59.035Z,4.15
2019-05-16T02:20:09.027Z,4.15
2019-05-16T02:21:18.507Z,4.15
2019-05-16T02:22:28.671Z,4.15
2019-05-16T02:23:38.408Z,4.15
2019-05-16T02:24:48.139Z,4.15
2019-05-16T02:25:54.888Z,4.15
2019-05-16T02:27:04.205Z,4.15
2019-05-16T02:28:13.550Z,4.15
2019-05-16T02:29:22.951Z,4.15
2019-05-16T02:30:32.305Z,4.15
2019-05-16T02:31:42.518Z,4.15
2019-05-16T02:32:52.740Z,4.15
2019-05-16T02:34:05.089Z,4.15
2019-05-16T02:36:22.093Z,4.15
2019-05-16T02:37:35.295Z,4.15
2019-05-16T02:38:37.813Z,4.15
2019-05-16T02:39:47.077Z,4.15
2019-05-16T02:40:56.517Z,4.15
2019-05-16T02:43:15.074Z,4.15
2019-05-16T02:44:25.170Z,4.15
2019-05-16T02:45:33.843Z,4.15
2019-05-16T02:46:43.285Z,4.15
2019-05-16T02:47:52.474Z,4.15
2019-05-16T02:49:01.913Z,4.15
2019-05-16T02:50:12.932Z,4.15
2019-05-16T02:51:21.814Z,4.15
2019-05-16T02:52:31.999Z,4.15
2019-05-16T02:53:41.977Z,4.15
2019-05-16T02:54:52.167Z,4.15
2019-05-16T02:56:01.931Z,4.15
2019-05-16T02:57:11.729Z,4.15
2019-05-16T02:58:16.619Z,4.15
2019-05-16T02:59:25.983Z,4.15
2019-05-16T03:00:35.474Z,4.15
2019-05-16T03:01:44.671Z,4.15
2019-05-16T03:02:54.024Z,4.15
2019-05-16T03:04:03.386Z,4.15
2019-05-16T03:05:13.061Z,4.15
2019-05-16T03:06:22.532Z,4.15
2019-05-16T03:07:46.995Z,4.15
2019-05-16T03:08:41.445Z,4.15
2019-05-16T03:09:51.655Z,4.15
2019-05-16T03:11:01.392Z,4.15
2019-05-16T03:12:10.942Z,4.15
2019-05-16T03:13:18.130Z,4.15
2019-05-16T03:14:27.526Z,4.15
2019-05-16T03:15:36.851Z,4.15
2019-05-16T03:16:46.188Z,4.15
2019-05-16T03:18:04.683Z,4.15
2019-05-16T03:19:04.970Z,4.15
2019-05-16T03:20:14.249Z,4.15
2019-05-16T03:21:23.577Z,4.15
2019-05-16T03:22:32.945Z,4.15
2019-05-16T03:23:42.503Z,4.15
2019-05-16T03:24:51.778Z,4.15
2019-05-16T03:26:01.347Z,4.15
2019-05-16T03:27:11.138Z,4.15
2019-05-16T03:28:22.635Z,4.15
2019-05-16T03:29:31.042Z,4.15
2019-05-16T03:30:45.614Z,4.15
2019-05-16T03:31:54.520Z,4.15
2019-05-16T03:32:57.127Z,4.15
2019-05-16T03:34:15.798Z,4.15
2019-05-16T03:35:22.966Z,4.15
2019-05-16T03:36:26.117Z,4.15
2019-05-16T03:38:01.329Z,4.15
2019-05-16T03:38:43.815Z,4.15
2019-05-16T03:39:53.129Z,4.15
2019-05-16T03:41:02.509Z,4.15
2019-05-16T03:42:13.073Z,4.15
2019-05-16T03:43:22.276Z,4.15
2019-05-16T03:44:32.123Z,4.15
2019-05-16T03:45:42.076Z,4.15
2019-05-16T03:46:52.049Z,4.15
2019-05-16T03:48:03.649Z,4.15
2019-05-16T03:49:11.594Z,4.15
2019-05-16T03:50:22.078Z,4.15
2019-05-16T03:51:31.158Z,4.15
2019-05-16T03:52:44.049Z,4.18
2019-05-16T03:53:46.524Z,4.18
2019-05-16T03:54:55.820Z,4.15
2019-05-16T03:56:05.134Z,4.15
2019-05-16T03:57:14.473Z,4.15
2019-05-16T03:58:23.816Z,4.15
2019-05-16T03:59:33.251Z,4.15
2019-05-16T04:00:46.052Z,4.15
2019-05-16T04:01:51.878Z,4.15
2019-05-16T04:03:01.583Z,4.15
2019-05-16T04:04:12.432Z,4.15
2019-05-16T04:05:21.383Z,4.15
2019-05-16T04:06:31.353Z,4.15
2019-05-16T04:07:42.050Z,4.15
2019-05-16T04:08:51.379Z,4.15
2019-05-16T04:09:57.324Z,4.15
2019-05-16T04:11:06.796Z,4.15
2019-05-16T04:12:16.151Z,4.15
2019-05-16T04:13:25.403Z,4.15
2019-05-16T04:14:34.709Z,4.15
2019-05-16T04:15:44.106Z,4.15
2019-05-16T04:16:53.533Z,4.15
2019-05-16T04:18:02.930Z,4.15
2019-05-16T04:19:12.093Z,4.15
2019-05-16T04:20:21.739Z,4.18
2019-05-16T04:21:32.667Z,4.15
2019-05-16T04:22:41.261Z,4.15
2019-05-16T04:23:50.916Z,4.18
2019-05-16T04:25:02.347Z,4.18
2019-05-16T04:26:11.702Z,4.15
2019-05-16T04:27:21.770Z,4.18
2019-05-16T04:28:32.198Z,4.15
2019-05-16T04:29:41.068Z,4.15
2019-05-16T04:30:46.651Z,4.18
2019-05-16T04:31:56.035Z,4.18
2019-05-16T04:33:05.352Z,4.15
2019-05-16T04:34:14.721Z,4.15
2019-05-16T04:35:24.097Z,4.15
2019-05-16T04:36:33.475Z,4.15
2019-05-16T04:37:43.091Z,4.15
2019-05-16T04:38:52.163Z,4.15
2019-05-16T04:40:02.250Z,4.15
2019-05-16T04:41:11.988Z,4.18
2019-05-16T04:42:21.680Z,4.15
2019-05-16T04:43:31.952Z,4.15
2019-05-16T04:44:41.984Z,4.15
2019-05-16T04:45:53.068Z,4.18
2019-05-16T04:46:57.687Z,4.15
2019-05-16T04:48:07.230Z,4.15
2019-05-16T04:50:25.694Z,4.15
2019-05-16T04:51:35.069Z,4.15
2019-05-16T04:52:44.411Z,4.15
2019-05-16T04:53:53.768Z,4.15
2019-05-16T04:55:03.330Z,4.18
2019-05-16T04:56:12.503Z,4.15
2019-05-16T04:57:21.950Z,4.15
2019-05-16T04:58:32.058Z,4.15
2019-05-16T04:59:42.119Z,4.15
2019-05-16T05:00:52.681Z,4.15
2019-05-16T05:02:02.529Z,4.15
2019-05-16T05:03:12.087Z,4.15
2019-05-16T05:04:21.597Z,4.15
2019-05-16T05:05:27.347Z,4.15
2019-05-16T05:06:36.911Z,4.15
2019-05-16T05:07:46.042Z,4.15
2019-05-16T05:09:03.708Z,4.15
2019-05-16T05:10:04.994Z,4.15
2019-05-16T05:11:14.144Z,4.15
2019-05-16T05:12:23.492Z,4.18
2019-05-16T05:13:32.843Z,4.15
2019-05-16T05:14:42.230Z,4.15
2019-05-16T05:15:51.664Z,4.15
2019-05-16T05:17:05.645Z,4.15
2019-05-16T05:18:10.421Z,4.15
2019-05-16T05:19:20.494Z,4.15
2019-05-16T05:20:30.568Z,4.16
2019-05-16T05:21:41.291Z,4.16
2019-05-16T05:22:50.145Z,4.15
2019-05-16T05:23:57.060Z,4.18
2019-05-16T05:25:06.514Z,4.15
2019-05-16T05:26:15.973Z,4.15
2019-05-16T05:27:25.150Z,4.15
2019-05-16T05:28:34.521Z,4.18
2019-05-16T05:29:43.882Z,4.16
2019-05-16T05:30:53.247Z,4.16
2019-05-16T05:32:05.736Z,4.18
2019-05-16T05:33:12.061Z,4.16
2019-05-16T05:34:21.360Z,4.18
2019-05-16T05:35:31.241Z,4.16
2019-05-16T05:36:41.172Z,4.16
2019-05-16T05:37:50.984Z,4.16
2019-05-16T05:39:15.651Z,4.16
2019-05-16T05:40:11.057Z,4.16
2019-05-16T05:41:20.002Z,4.16
2019-05-16T05:42:26.880Z,4.16
2019-05-16T05:43:36.238Z,4.16
2019-05-16T05:44:45.601Z,4.16
2019-05-16T05:45:54.995Z,4.16
2019-05-16T05:47:04.610Z,4.16
2019-05-16T05:48:14.001Z,4.18
2019-05-16T05:49:23.307Z,4.16
2019-05-16T05:50:32.684Z,4.16
2019-05-16T05:51:42.174Z,4.18
2019-05-16T05:52:51.477Z,4.18
2019-05-16T05:54:00.782Z,4.16
2019-05-16T05:55:11.011Z,4.16
2019-05-16T05:56:19.960Z,4.16
2019-05-16T05:57:30.289Z,4.19
2019-05-16T05:58:40.907Z,4.19
2019-05-16T05:59:49.922Z,4.18
2019-05-16T06:00:56.978Z,4.19
2019-05-16T06:02:06.315Z,4.19
2019-05-16T06:03:16.146Z,4.19
2019-05-16T06:04:25.111Z,4.16
2019-05-16T06:05:34.446Z,4.19
2019-05-16T06:06:45.383Z,4.16
2019-05-16T06:07:53.340Z,4.19
2019-05-16T06:09:02.543Z,4.17
2019-05-16T06:10:11.941Z,4.19
2019-05-16T06:11:21.371Z,4.19
2019-05-16T06:12:30.805Z,4.19
2019-05-16T06:13:40.687Z,4.17
2019-05-16T06:14:50.665Z,4.19
2019-05-16T06:16:00.478Z,4.2
2019-05-16T06:17:11.684Z,4.19
2019-05-16T06:18:20.356Z,4.2
2019-05-16T06:19:26.874Z,4.17
2019-05-16T06:20:36.225Z,4.2
2019-05-16T06:21:45.653Z,4.17
2019-05-16T06:22:54.980Z,4.2
2019-05-16T06:24:04.407Z,4.17
2019-05-16T06:25:14.537Z,4.17
2019-05-16T06:26:23.105Z,4.17
2019-05-16T06:27:32.513Z,4.17
2019-05-16T06:28:41.841Z,4.2
2019-05-16T06:29:51.188Z,4.19
2019-05-16T06:31:02.848Z,4.17
2019-05-16T06:32:10.462Z,4.17
2019-05-16T06:33:20.429Z,4.2
2019-05-16T06:34:30.411Z,4.2
2019-05-16T06:35:40.355Z,4.2
2019-05-16T06:36:47.450Z,4.2
2019-05-16T06:37:56.822Z,4.2
2019-05-16T06:39:06.175Z,4.2
2019-05-16T06:40:15.569Z,4.2
2019-05-16T06:41:25.049Z,4.2
2019-05-16T06:43:43.710Z,4.2
2019-05-16T06:44:53.117Z,4.17
2019-05-16T06:46:02.546Z,4.2
2019-05-16T06:47:23.167Z,4.2
2019-05-16T06:48:21.845Z,4.2
2019-05-16T06:49:30.693Z,4.2
2019-05-16T06:50:40.328Z,4.2
2019-05-16T06:51:51.782Z,4.2
2019-05-16T06:53:01.113Z,4.2
2019-05-16T06:54:10.373Z,4.17
2019-05-16T06:56:26.893Z,4.2
2019-05-16T06:57:36.324Z,4.2
2019-05-16T06:58:52.274Z,4.2
2019-05-16T06:59:55.081Z,4.17
2019-05-16T07:01:04.575Z,4.2
2019-05-16T07:03:23.184Z,4.2
2019-05-16T07:04:32.489Z,4.2
2019-05-16T07:05:41.951Z,4.2
2019-05-16T07:07:02.740Z,4.2
2019-05-16T07:08:00.643Z,4.2
2019-05-16T07:09:10.861Z,4.21
2019-05-16T07:10:20.621Z,4.18
2019-05-16T07:11:30.806Z,4.18
2019-05-16T07:12:40.754Z,4.18
2019-05-16T07:13:52.302Z,4.18
2019-05-16T07:14:56.944Z,4.18
2019-05-16T07:16:06.296Z,4.21
2019-05-16T07:17:15.696Z,4.21
2019-05-16T07:18:25.087Z,4.21
2019-05-16T07:19:35.707Z,4.21
2019-05-16T07:20:43.966Z,4.21
2019-05-16T07:21:53.628Z,4.21
2019-05-16T07:24:12.137Z,4.18
2019-05-16T07:25:26.210Z,4.21
2019-05-16T07:26:31.146Z,4.18
2019-05-16T07:27:40.413Z,4.21
2019-05-16T07:28:51.930Z,4.21
2019-05-16T07:30:01.613Z,4.21
2019-05-16T07:31:21.829Z,4.22
2019-05-16T07:32:20.045Z,4.21
2019-05-16T07:33:27.238Z,4.21
2019-05-16T07:34:36.568Z,4.18
2019-05-16T07:35:45.778Z,4.22
2019-05-16T07:36:55.169Z,4.22
2019-05-16T07:38:04.548Z,4.22
2019-05-16T07:39:13.945Z,4.18
2019-05-16T07:40:27.229Z,4.18
2019-05-16T07:41:32.742Z,4.22
2019-05-16T07:42:42.073Z,4.22
2019-05-16T07:43:51.824Z,4.22
2019-05-16T07:45:01.221Z,4.18
2019-05-16T07:46:11.322Z,4.22
2019-05-16T07:47:20.520Z,4.22
2019-05-16T07:48:32.196Z,4.18
2019-05-16T07:49:40.835Z,4.22
2019-05-16T07:50:50.487Z,4.22
2019-05-16T07:51:57.387Z,4.19
2019-05-16T07:53:06.868Z,4.22
2019-05-16T07:54:16.358Z,4.22
2019-05-16T07:55:28.031Z,4.22
2019-05-16T07:56:34.949Z,4.22
2019-05-16T07:57:44.364Z,4.19
2019-05-16T07:58:53.740Z,4.22
2019-05-16T08:01:13.183Z,4.22
2019-05-16T08:02:21.924Z,4.22
2019-05-16T08:03:31.412Z,4.22
2019-05-16T08:04:40.734Z,4.19
2019-05-16T08:05:51.884Z,4.19
2019-05-16T08:07:00.946Z,4.22
2019-05-16T08:08:10.657Z,4.22
2019-05-16T08:09:21.341Z,4.19
2019-05-16T08:10:46.907Z,4.22
2019-05-16T08:11:37.013Z,4.22
2019-05-16T08:12:46.415Z,4.22
2019-05-16T08:13:55.852Z,4.22
2019-05-16T08:15:05.292Z,4.2
2019-05-16T08:16:14.741Z,4.22
2019-05-16T08:17:24.110Z,4.22
2019-05-16T08:18:33.251Z,4.2
2019-05-16T08:19:42.647Z,4.2
2019-05-16T08:20:52.999Z,4.2
2019-05-16T08:22:01.633Z,4.23
2019-05-16T08:23:11.408Z,4.2
2019-05-16T08:24:20.759Z,4.22
2019-05-16T08:25:31.582Z,4.22
2019-05-16T08:26:43.386Z,4.22
2019-05-16T08:27:52.346Z,4.2
2019-05-16T08:29:01.202Z,4.22
2019-05-16T08:30:07.650Z,4.2
2019-05-16T08:31:16.626Z,4.2
2019-05-16T08:32:25.918Z,4.22
2019-05-16T08:33:35.356Z,4.22
2019-05-16T08:34:44.782Z,4.2
2019-05-16T08:35:54.599Z,4.2
2019-05-16T08:38:14.013Z,4.2
2019-05-16T08:39:23.433Z,4.22
2019-05-16T08:40:32.787Z,4.22
2019-05-16T08:41:42.748Z,4.2
2019-05-16T08:42:52.242Z,4.2
2019-05-16T08:46:20.967Z,4.2
2019-05-16T08:47:32.484Z,4.2
2019-05-16T08:48:42.624Z,4.2
2019-05-16T08:49:52.491Z,4.2
2019-05-16T08:50:57.263Z,4.2
2019-05-16T08:52:07.005Z,4.2
2019-05-16T08:53:16.013Z,4.2
2019-05-16T08:54:25.393Z,4.2
2019-05-16T08:59:04.580Z,4.2
2019-05-16T09:02:37.234Z,4.2
2019-05-16T09:03:41.900Z,4.2
2019-05-16T09:04:54.357Z,4.2
2019-05-16T09:06:03.600Z,4.2
2019-05-16T09:07:12.944Z,4.2
2019-05-16T09:08:18.283Z,4.2
2019-05-16T09:10:58.950Z,4.2
2019-05-16T09:11:48.964Z,4.2
2019-05-16T09:12:57.452Z,4.2
2019-05-16T09:14:08.172Z,4.2
2019-05-16T09:15:17.395Z,4.2
2019-05-16T09:16:23.914Z,4.2
2019-05-16T09:17:33.253Z,4.2
2019-05-16T09:18:46.560Z,4.2
2019-05-16T09:19:52.069Z,4.2
2019-05-16T09:21:01.427Z,4.2
2019-05-16T09:22:11.076Z,4.2
2019-05-16T09:23:20.247Z,4.2
2019-05-16T09:24:29.739Z,4.19
2019-05-16T09:25:39.883Z,4.2
2019-05-16T09:26:48.383Z,4.2
2019-05-16T09:27:57.809Z,4.19
2019-05-16T09:29:08.917Z,4.19
2019-05-16T09:30:17.638Z,4.2
2019-05-16T09:31:27.784Z,4.2
2019-05-16T09:32:37.301Z,4.2
2019-05-16T09:33:47.762Z,4.22
2019-05-16T09:34:57.880Z,4.2
2019-05-16T09:36:03.574Z,4.2
2019-05-16T09:37:12.982Z,4.2
2019-05-16T09:38:24.103Z,4.2
2019-05-16T09:39:31.818Z,4.2
2019-05-16T09:40:41.354Z,4.2
2019-05-16T09:41:58.960Z,4.22
2019-05-16T09:43:00.077Z,4.22
2019-05-16T09:44:09.554Z,4.2
2019-05-16T09:45:19.191Z,4.2
2019-05-16T09:46:28.163Z,4.2
2019-05-16T09:47:39.398Z,4.2
2019-05-16T09:48:48.227Z,4.2
2019-05-16T09:49:58.240Z,4.2
2019-05-16T09:51:06.869Z,4.2
2019-05-16T09:52:16.683Z,4.2
2019-05-16T09:53:24.532Z,4.2
2019-05-16T09:54:34.340Z,4.2
2019-05-16T10:25:04.124Z,4.2
2019-05-16T10:27:12.551Z,4.2
2019-05-16T10:28:31.172Z,4.2
2019-05-16T10:28:33.373Z,4.2
2019-05-16T10:30:27.205Z,4.2
2019-05-16T10:31:53.196Z,4.2
2019-05-16T10:33:53.478Z,4.2
2019-05-16T10:35:02.846Z,4.2
2019-05-16T10:36:13.055Z,4.2
2019-05-16T10:37:22.309Z,4.2
2019-05-16T10:38:31.933Z,4.2
2019-05-16T10:39:41.141Z,4.2
2019-05-16T10:42:00.382Z,4.2
2019-05-16T10:43:09.797Z,4.2
2019-05-16T10:44:19.896Z,4.19
2019-05-16T10:46:37.928Z,4.2
2019-05-16T10:47:48.329Z,4.2
2019-05-16T10:48:57.984Z,4.2
2019-05-16T10:50:05.419Z,4.2
2019-05-16T10:51:17.250Z,4.19
2019-05-16T10:52:24.237Z,4.2
2019-05-16T10:54:13.941Z,4.19
2019-05-16T10:55:04.169Z,4.2
2019-05-16T10:55:52.790Z,4.19
2019-05-16T10:57:02.087Z,4.19
2019-05-16T10:58:11.324Z,4.2
2019-05-16T11:00:16.323Z,4.2
2019-05-16T11:01:26.311Z,4.19
2019-05-16T11:01:39.528Z,4.2
2019-05-16T11:02:49.049Z,4.2
2019-05-16T11:03:58.816Z,4.2
2019-05-16T11:06:29.542Z,4.19
2019-05-16T11:07:30.132Z,4.19
2019-05-16T11:08:39.799Z,4.2
2019-05-16T11:10:03.778Z,4.2
2019-05-16T11:10:57.395Z,4.2
2019-05-16T11:12:04.228Z,4.2
2019-05-16T11:13:13.651Z,4.19
2019-05-16T11:14:23.185Z,4.2
2019-05-16T11:15:32.527Z,4.2
2019-05-16T11:16:41.965Z,4.2
2019-05-16T11:17:51.343Z,4.2
2019-05-16T11:19:24.603Z,4.2
2019-05-16T11:20:10.471Z,4.2
2019-05-16T11:21:19.659Z,4.19
2019-05-16T11:22:30.250Z,4.2
2019-05-16T11:23:38.513Z,4.2
2019-05-16T11:24:48.124Z,4.19
2019-05-16T11:25:58.697Z,4.2
2019-05-16T11:27:07.746Z,4.2
2019-05-16T11:28:18.822Z,4.2
2019-05-16T11:29:25.735Z,4.19
2019-05-16T11:30:37.982Z,4.2
2019-05-16T11:31:47.006Z,4.19
2019-05-16T11:32:53.927Z,4.2
2019-05-16T11:34:03.381Z,4.2
2019-05-16T11:35:12.869Z,4.2
2019-05-16T11:36:22.228Z,4.19
2019-05-16T11:37:31.663Z,4.19
2019-05-16T11:38:41.153Z,4.2
2019-05-16T11:39:50.840Z,4.2
2019-05-16T11:41:00.008Z,4.2
2019-05-16T11:42:09.458Z,4.2
2019-05-16T11:43:22.133Z,4.2
2019-05-16T11:44:29.270Z,4.19
2019-05-16T11:45:37.697Z,4.19
2019-05-16T11:46:49.457Z,4.2
2019-05-16T11:47:56.867Z,4.2
2019-05-16T11:49:05.948Z,4.2
2019-05-16T11:50:18.076Z,4.19
2019-05-16T11:51:27.474Z,4.19
2019-05-16T11:52:34.263Z,4.19
2019-05-16T11:53:43.756Z,4.2
2019-05-16T11:54:53.329Z,4.19
2019-05-16T11:56:02.764Z,4.2
2019-05-16T11:57:12.007Z,4.19
2019-05-16T11:58:21.453Z,4.2
2019-05-16T11:59:30.809Z,4.2
2019-05-16T12:00:40.417Z,4.2
2019-05-16T12:01:49.774Z,4.2
2019-05-16T12:02:59.240Z,4.2
2019-05-16T12:04:08.961Z,4.2
2019-05-16T12:05:18.119Z,4.19
2019-05-16T12:06:27.417Z,4.19
2019-05-16T12:07:48.156Z,4.19
2019-05-16T12:08:47.008Z,4.2
2019-05-16T12:09:55.994Z,4.2
2019-05-16T12:11:07.216Z,4.19
2019-05-16T12:12:21.063Z,4.19
2019-05-16T12:13:33.130Z,4.19
2019-05-16T12:14:33.519Z,4.19
2019-05-16T12:15:42.971Z,4.2
2019-05-16T12:16:52.405Z,4.19
2019-05-16T12:18:08.784Z,4.19
2019-05-16T12:19:11.600Z,4.2
2019-05-16T12:20:20.766Z,4.2
2019-05-16T12:21:30.224Z,4.2
2019-05-16T12:22:39.660Z,4.2
2019-05-16T12:23:49.103Z,4.19
2019-05-16T12:24:58.566Z,4.2
2019-05-16T12:26:08.276Z,4.19
2019-05-16T12:27:17.485Z,4.19
2019-05-16T12:28:27.414Z,4.19
2019-05-16T12:29:37.597Z,4.19
2019-05-16T12:30:47.444Z,4.2
2019-05-16T12:32:03.343Z,4.19
2019-05-16T12:33:07.516Z,4.19
2019-05-16T12:34:14.115Z,4.19
2019-05-16T12:35:23.604Z,4.2
2019-05-16T12:36:33.023Z,4.19
2019-05-16T12:37:42.387Z,4.19
2019-05-16T12:38:52.011Z,4.2
2019-05-16T12:40:01.483Z,4.2
2019-05-16T12:41:10.764Z,4.2
2019-05-16T12:42:20.209Z,4.19
2019-05-16T12:43:53.357Z,4.19
2019-05-16T12:44:39.476Z,4.19
2019-05-16T12:45:48.545Z,4.2
2019-05-16T12:46:58.061Z,4.19
2019-05-16T12:48:07.511Z,4.19
2019-05-16T12:49:17.739Z,4.19
2019-05-16T12:50:29.139Z,4.19
2019-05-16T12:51:37.132Z,4.19
2019-05-16T12:52:47.698Z,4.19
2019-05-16T12:53:57.381Z,4.19
2019-05-16T12:55:06.652Z,4.19
2019-05-16T12:56:17.616Z,4.19
2019-05-16T12:57:31.340Z,4.2
2019-05-16T12:58:42.626Z,4.2
2019-05-16T12:59:52.762Z,4.2
2019-05-16T13:00:58.319Z,4.19
2019-05-16T13:02:00.814Z,4.19
2019-05-16T13:03:11.488Z,4.2
2019-05-16T13:04:19.688Z,4.2
2019-05-16T13:05:29.074Z,4.19
2019-05-16T13:06:38.667Z,4.19
2019-05-16T13:13:37.899Z,4.19
2019-05-16T13:14:44.652Z,4.2
2019-05-16T13:17:03.541Z,4.19
2019-05-16T13:18:13.002Z,4.2
2019-05-16T13:19:22.453Z,4.19
2019-05-16T13:20:32.015Z,4.19
2019-05-16T13:21:41.402Z,4.19
2019-05-16T13:24:00.186Z,4.2
2019-05-16T13:25:11.173Z,4.19
2019-05-16T13:26:19.125Z,4.19
2019-05-16T13:27:28.659Z,4.22
2019-05-16T13:28:38.176Z,4.2
2019-05-16T13:29:47.914Z,4.19
2019-05-16T13:30:58.243Z,4.19
2019-05-16T13:32:07.974Z,4.19
2019-05-16T13:33:18.029Z,4.2
2019-05-16T13:34:28.338Z,4.2
2019-05-16T13:35:37.323Z,4.2
2019-05-16T13:36:44.084Z,4.2
2019-05-16T13:37:53.545Z,4.19
2019-05-16T13:39:02.967Z,4.19
2019-05-16T13:40:12.419Z,4.19
2019-05-16T13:41:21.926Z,4.19
2019-05-16T13:42:31.362Z,4.19
2019-05-16T13:43:41.042Z,4.19
2019-05-16T13:44:50.180Z,4.19
2019-05-16T13:45:59.767Z,4.19
2019-05-16T13:47:09.067Z,4.19
2019-05-16T13:48:18.755Z,4.19
2019-05-16T13:49:28.042Z,4.19
2019-05-16T13:50:40.122Z,4.19
2019-05-16T13:51:46.867Z,4.19
2019-05-16T13:52:58.782Z,4.19
2019-05-16T13:54:07.245Z,4.19
2019-05-16T13:55:16.994Z,4.19
2019-05-16T13:56:27.484Z,4.2
2019-05-16T13:57:34.052Z,4.2
2019-05-16T13:58:43.771Z,4.2
2019-05-16T13:59:53.077Z,4.19
2019-05-16T14:01:02.373Z,4.19
2019-05-16T14:02:11.875Z,4.2
2019-05-16T14:03:21.289Z,4.19
2019-05-16T14:04:30.749Z,4.19
2019-05-16T14:05:40.166Z,4.2
2019-05-16T14:06:49.608Z,4.19
2019-05-16T14:07:59.106Z,4.19
2019-05-16T14:09:09.001Z,4.19
2019-05-16T14:10:18.830Z,4.19
2019-05-16T14:11:27.493Z,4.19
2019-05-16T14:12:37.077Z,4.19
2019-05-16T14:13:47.214Z,4.19
2019-05-16T14:14:55.762Z,4.19
2019-05-16T14:16:07.623Z,4.19
2019-05-16T14:17:18.134Z,4.19
2019-05-16T14:18:24.070Z,4.19
2019-05-16T14:19:33.510Z,4.19
2019-05-16T14:20:46.874Z,4.19
2019-05-16T14:21:53.574Z,4.19
2019-05-16T14:23:03.006Z,4.19
2019-05-16T14:24:12.541Z,4.19
2019-05-16T14:25:22.223Z,4.19
2019-05-16T14:26:31.379Z,4.19
2019-05-16T14:27:40.813Z,4.19
2019-05-16T14:28:50.348Z,4.19
2019-05-16T14:29:59.686Z,4.2
2019-05-16T14:32:20.375Z,4.19
2019-05-16T14:33:28.022Z,4.19
2019-05-16T14:34:39.038Z,4.19
2019-05-16T14:35:47.562Z,4.2
2019-05-16T14:36:58.075Z,4.2
2019-05-16T14:38:05.821Z,4.19
2019-05-16T14:39:20.014Z,4.19
2019-05-16T14:40:24.721Z,4.19
2019-05-16T14:41:37.489Z,4.19
2019-05-16T14:42:43.777Z,4.19
2019-05-16T14:43:53.302Z,4.19
2019-05-16T14:45:13.494Z,4.22
2019-05-16T14:46:11.994Z,4.19
2019-05-16T14:47:21.413Z,4.2
2019-05-16T14:48:30.865Z,4.19
2019-05-16T14:49:40.462Z,4.22
2019-05-16T14:50:49.760Z,4.2
2019-05-16T14:51:59.229Z,4.22
2019-05-16T14:53:08.671Z,4.2
2019-05-16T14:54:18.441Z,4.22
2019-05-16T14:55:27.690Z,4.22
2019-05-16T14:56:38.952Z,4.22
2019-05-16T14:57:47.613Z,4.2
2019-05-16T14:58:57.906Z,4.22
2019-05-16T15:00:07.713Z,4.22
2019-05-16T15:01:17.756Z,4.22
2019-05-16T15:02:27.812Z,4.22
2019-05-16T15:03:33.687Z,4.2
2019-05-16T15:04:43.127Z,4.2
2019-05-16T15:05:59.135Z,4.2
2019-05-16T15:07:02.086Z,4.2
2019-05-16T15:08:11.453Z,4.2
2019-05-16T15:09:20.902Z,4.2
2019-05-16T15:10:30.642Z,4.2
2019-05-16T15:11:40.085Z,4.2
2019-05-16T15:12:49.231Z,4.2
2019-05-16T15:13:58.838Z,4.2
2019-05-16T15:15:27.824Z,4.2
2019-05-16T15:17:27.681Z,4.2
2019-05-16T15:18:38.737Z,4.2
2019-05-16T15:19:46.864Z,4.2
2019-05-16T15:20:57.751Z,4.2
2019-05-16T15:22:08.296Z,4.2
2019-05-16T15:23:17.974Z,4.2
2019-05-16T15:24:23.766Z,4.2
2019-05-16T15:25:33.182Z,4.2
2019-05-16T15:26:42.659Z,4.2
2019-05-16T15:27:52.313Z,4.2
2019-05-16T15:29:01.707Z,4.2
2019-05-16T15:30:11.140Z,4.22
2019-05-16T15:31:20.546Z,4.2
2019-05-16T15:32:32.074Z,4.2
2019-05-16T15:33:39.386Z,4.2
2019-05-16T15:34:48.820Z,4.2
2019-05-16T15:35:58.365Z,4.2
2019-05-16T15:37:08.306Z,4.2
2019-05-16T15:38:17.230Z,4.2
2019-05-16T15:39:27.770Z,4.2
2019-05-16T15:40:38.010Z,4.22
2019-05-16T15:41:45.635Z,4.2
2019-05-16T15:42:59.232Z,4.2
2019-05-16T15:44:04.428Z,4.2
2019-05-16T15:45:13.942Z,4.2
2019-05-16T15:46:23.790Z,4.2
2019-05-16T15:47:32.802Z,4.2
2019-05-16T15:49:51.926Z,4.2
2019-05-16T15:51:01.225Z,4.2
2019-05-16T15:52:10.609Z,4.2
2019-05-16T15:53:20.064Z,4.22
2019-05-16T15:54:29.655Z,4.22
2019-05-16T15:55:39.015Z,4.2
2019-05-16T15:56:48.475Z,4.2
2019-05-16T15:57:57.881Z,4.2
2019-05-16T15:59:10.095Z,4.22
2019-05-16T16:00:18.503Z,4.2
2019-05-16T16:01:27.327Z,4.2
2019-05-16T16:02:37.033Z,4.2
2019-05-16T16:03:47.608Z,4.2
2019-05-16T16:04:57.729Z,4.2
2019-05-16T16:06:07.092Z,4.2
2019-05-16T16:07:13.514Z,4.2
2019-05-16T16:08:22.942Z,4.2
2019-05-16T16:09:32.367Z,4.2
2019-05-16T16:10:41.858Z,4.2
2019-05-16T16:11:51.351Z,4.2
2019-05-16T16:13:00.736Z,4.2
2019-05-16T16:14:10.215Z,4.2
2019-05-16T16:15:19.623Z,4.2
2019-05-16T16:16:30.274Z,4.2
2019-05-16T16:17:39.655Z,4.22
2019-05-16T16:18:49.007Z,4.2
2019-05-16T16:19:58.511Z,4.2
2019-05-16T16:22:17.976Z,4.2
2019-05-16T16:23:27.589Z,4.2
2019-05-16T16:24:36.292Z,4.2
2019-05-16T16:25:51.916Z,4.2
2019-05-16T16:26:56.691Z,4.23
2019-05-16T16:28:07.626Z,4.2
2019-05-16T16:29:17.075Z,4.2
2019-05-16T16:30:23.456Z,4.2
2019-05-16T16:31:32.859Z,4.2
2019-05-16T16:32:42.325Z,4.2
2019-05-16T16:33:51.939Z,4.2
2019-05-16T16:35:01.177Z,4.22
2019-05-16T16:36:10.622Z,4.2
2019-05-16T16:37:20.087Z,4.2
2019-05-16T16:38:29.511Z,4.2
2019-05-16T16:39:38.955Z,4.2
2019-05-16T16:40:48.375Z,4.2
2019-05-16T16:41:57.819Z,4.2
2019-05-16T16:43:08.210Z,4.2